Tiptree, United Kingdom
Current Conditions -  °F | °C
As of 8:20 AM on Tuesday 21 Oct 2014 (Local Time) from EGMC Reporting Station
Rain Showers Rain Showers  
Wind Chill: 57°   Ceiling: Unl
Heat Index: 57°   Visibility: 6mi
Dew Point: 54°   Wind: 21mph
Humidity: 88%   Direction: 230°SW
Pressure: 29.53"   Gusts: 32mph
Location:  51.81°N, 0.75°E
Report Text: EGMC 210720Z 23018G28KT 9999 -SHRA SCT017 14/12 Q1000
Loading
Personal Weather Stations






























Interactive Weather Map New forecast layout! Learn more

10-Day Weather Forecast

Advertisements
Track Severe Weather on mobile